Thunder radar more information blitzortung!


Radar de pluja more information rain snow radar


Visita la nostra xarxa de llocs de meteo:

Template documentation
and downloads

And another site



No particular awareness of the weather is required.    There are no Weather-warnings

Pagina Historial Weather Underground text

Diari Resum Juliol 28, 2017 Unitats:  Imperial    Mètric   Tant
« Previous Dia
SegĂźent Dia »
Diari Setmana Mensual Anual Personalitzada
  Maxima: Minima: Media:
Temperatura: TemperatureC °F 20.6 °F 26 °F
Punt de rosada: DewpointC °F 17.3 °F 18.6 °F
Humitat: Humidity % 47 % 65 %
Wind Speed: WindSpeedKMH mph 0.0 mph 8.2 mph
RĂ fegues de vent: WindSpeedGustKMH mph - -
Vent:- - ESE
Pression baro: PressurehPa in 1012.8 in -
Precipitacions: 0.0 in    
Historical Graphs
 
 
Dades de taula per Juliol 28, 2017
Temps Temperatura Punt de rosada Pression baro Vent Wind Speed RĂ fegues de vent Humitat Rainfall Rate (Hourly)
TemperatureC °F DewpointC °F PressurehPa in Calm     Humidity % HourlyPrecipMM in
00:03 24.2 °F 19.1 °F 1012.8 in Calm     73 % 0.0 in
00:05 21.7 °F 18.7 °F 1013.8 in Calm     83 % 0.0 in
00:08 24.2 °F 19.1 °F 1012.8 in WSW 2.6 mph 2.6 mph 73 % 0.0 in
00:13 24.2 °F 19.1 °F 1012.8 in WSW 2.6 mph 2.6 mph 73 % 0.0 in
00:15 21.6 °F 18.6 °F 1013.8 in Calm     83 % 0.0 in
00:18 24.1 °F 19.2 °F 1012.8 in WSW 1.9 mph 1.9 mph 74 % 0.0 in
00:23 24.1 °F 19.2 °F 1012.8 in Calm     74 % 0.0 in
00:25 21.6 °F 18.8 °F 1013.8 in Calm     84 % 0.0 in
00:28 24.0 °F 19.3 °F 1012.8 in Calm     75 % 0.0 in
00:33 24.0 °F 19.1 °F 1012.8 in WSW 1.9 mph 1.9 mph 74 % 0.0 in
00:35 21.5 °F 18.7 °F 1014.8 in Calm     84 % 0.0 in
00:38 23.9 °F 19.2 °F 1012.8 in WSW 1.9 mph 1.9 mph 75 % 0.0 in
00:43 23.8 °F 19.1 °F 1012.8 in Calm     75 % 0.0 in
00:45 21.4 °F 18.6 °F 1014.8 in Calm     84 % 0.0 in
00:48 23.8 °F 19.3 °F 1012.8 in Calm     76 % 0.0 in
00:49 23.8 °F 19.3 °F 1013.8 in Calm     76 % 0.0 in
00:54 23.7 °F 19.2 °F 1013.8 in Calm     76 % 0.0 in
00:55 21.4 °F 18.8 °F 1013.8 in Calm     85 % 0.0 in
00:59 23.8 °F 19.3 °F 1013.8 in West 3.7 mph 3.7 mph 76 % 0.0 in
01:04 23.8 °F 19.3 °F 1012.8 in West 1.9 mph   76 % 0.0 in
01:05 21.4 °F 18.8 °F 1013.8 in Calm   1.6 mph 85 % 0.0 in
01:09 23.7 °F 19.4 °F 1012.8 in Calm     77 % 0.0 in
01:14 23.7 °F 19.4 °F 1012.8 in West 2.3 mph 2.3 mph 77 % 0.0 in
01:15 21.4 °F 18.8 °F 1013.8 in ENE 1.6 mph 3.2 mph 85 % 0.0 in
01:19 23.5 °F 19.2 °F 1013.8 in West 1.9 mph 1.9 mph 77 % 0.0 in
01:24 23.5 °F 19.2 °F 1013.8 in ENE 3.7 mph 3.7 mph 77 % 0.0 in
01:25 23.5 °F 19.2 °F 1013.8 in North 1.6 mph 3.2 mph 77 % 0.0 in
01:30 23.3 °F 19.1 °F 1013.8 in Calm   3.2 mph 77 % 0.0 in
01:35 21.4 °F 18.6 °F 1014.8 in Calm   4.8 mph 84 % 0.0 in
01:45 21.4 °F 18.6 °F 1014.8 in Calm   1.6 mph 84 % 0.0 in
01:55 21.5 °F 18.7 °F 1014.8 in Calm     84 % 0.0 in
02:05 21.5 °F 18.7 °F 1014.8 in NW 1.6 mph 1.6 mph 84 % 0.0 in
02:15 21.6 °F 18.8 °F 1014.8 in West 1.6 mph 1.6 mph 84 % 0.0 in
02:25 21.5 °F 18.7 °F 1014.8 in Calm   3.2 mph 84 % 0.0 in
02:35 21.5 °F 18.7 °F 1014.8 in WSW 1.6 mph 3.2 mph 84 % 0.0 in
02:45 21.5 °F 18.7 °F 1014.8 in SW 1.6 mph 3.2 mph 84 % 0.0 in
02:55 21.7 °F 19.1 °F 1015.8 in SW 1.6 mph 3.2 mph 85 % 0.0 in
03:05 21.9 °F 19.3 °F 1014.8 in SW 1.6 mph 3.2 mph 85 % 0.0 in
03:15 22.2 °F 19.6 °F 1014.8 in Calm   1.6 mph 85 % 0.0 in
03:25 22.5 °F 19.8 °F 1015.8 in Calm   3.2 mph 85 % 0.0 in
03:35 22.9 °F 20.1 °F 1015.8 in South 1.6 mph 3.2 mph 84 % 0.0 in
03:45 23.4 °F 20.2 °F 1015.8 in SSW 1.6 mph 3.2 mph 82 % 0.0 in
03:55 23.9 °F 20.4 °F 1015.8 in Calm   3.2 mph 81 % 0.0 in
04:05 24.5 °F 20.8 °F 1015.8 in SSE 1.6 mph 3.2 mph 80 % 0.0 in
04:15 24.9 °F 20.8 °F 1015.8 in ESE 3.2 mph 4.8 mph 78 % 0.0 in
04:25 25.1 °F 20.6 °F 1015.8 in East 3.2 mph 4.8 mph 76 % 0.0 in
04:35 24.9 °F 20.4 °F 1015.8 in East 3.2 mph 6.4 mph 76 % 0.0 in
04:45 25.4 °F 20.8 °F 1015.8 in ESE 3.2 mph 6.4 mph 76 % 0.0 in
04:55 25.7 °F 20.9 °F 1015.8 in ESE 4.8 mph 6.4 mph 75 % 0.0 in
05:05 26.1 °F 20.9 °F 1015.8 in East 3.2 mph 8.0 mph 73 % 0.0 in
05:15 26.7 °F 21.2 °F 1015.8 in East 4.8 mph 6.4 mph 72 % 0.0 in
05:25 27.4 °F 21.2 °F 1015.8 in East 3.2 mph 8.0 mph 69 % 0.0 in
05:35 27.1 °F 20.7 °F 1015.8 in ESE 1.6 mph 8.0 mph 68 % 0.0 in
05:45 27.7 °F 20.8 °F 1015.8 in ESE 4.8 mph 4.8 mph 66 % 0.0 in
05:55 27.6 °F 20.4 °F 1015.8 in ENE 1.6 mph 9.7 mph 65 % 0.0 in
06:05 28.3 °F 20.8 °F 1015.8 in ENE 4.8 mph 8.0 mph 64 % 0.0 in
06:15 28.5 °F 20.5 °F 1015.8 in ESE 1.6 mph 9.7 mph 62 % 0.0 in
06:25 28.8 °F 20.8 °F 1015.8 in Calm   4.8 mph 62 % 0.0 in
06:35 29.1 °F 20.8 °F 1015.8 in SW 3.2 mph 4.8 mph 61 % 0.0 in
06:45 29.1 °F 20.6 °F 1015.8 in WSW 3.2 mph 6.4 mph 60 % 0.0 in
06:50 29.4 °F 20.6 °F 1015.8 in WSW 4.8 mph 4.8 mph 59 % 0.0 in
06:55 29.5 °F 20.1 °F 1015.8 in WSW 4.8 mph 4.8 mph 57 % 0.0 in
07:00 29.4 °F 19.7 °F 1015.8 in SSE 4.8 mph 4.8 mph 56 % 0.0 in
12:01 29.3 °F 19.3 °F 1015.8 in SSE 5.6 mph 7.2 mph 55 % 0.0 in
12:06 29.1 °F 19.1 °F 1015.8 in South 11.1 mph 11.1 mph 55 % 0.0 in
12:11 29.0 °F 18.8 °F 1015.8 in ESE 10.0 mph 10.0 mph 54 % 0.0 in
12:16 29.4 °F 19.1 °F 1015.8 in East 9.0 mph 9.0 mph 54 % 0.0 in
12:21 29.4 °F 18.8 °F 1015.8 in East 16.7 mph 16.7 mph 53 % 0.0 in
12:26 29.6 °F 19.0 °F 1015.8 in ESE 10.3 mph 10.3 mph 53 % 0.0 in
12:31 29.6 °F 18.7 °F 1015.8 in ESE 14.0 mph 14.0 mph 52 % 0.0 in
12:36 29.1 °F 18.2 °F 1015.8 in ENE 9.3 mph 9.3 mph 52 % 0.0 in
12:41 29.1 °F 18.2 °F 1015.8 in ESE 14.8 mph 14.8 mph 52 % 0.0 in
12:46 29.3 °F 18.4 °F 1015.8 in South 15.1 mph 15.1 mph 52 % 0.0 in
12:51 29.5 °F 18.3 °F 1014.8 in ESE 13.7 mph 13.7 mph 51 % 0.0 in
12:56 29.5 °F 18.6 °F 1014.8 in SE 13.0 mph 13.0 mph 52 % 0.0 in
13:01 30.3 °F 19.1 °F 1014.8 in ESE 12.2 mph 12.2 mph 51 % 0.0 in
13:06 30.1 °F 18.6 °F 1014.8 in ENE 14.8 mph 14.8 mph 50 % 0.0 in
13:11 30.0 °F 18.1 °F 1014.8 in ESE 13.7 mph 13.7 mph 49 % 0.0 in
13:17 29.6 °F 18.1 °F 1014.8 in East 20.1 mph 20.1 mph 50 % 0.0 in
13:22 29.6 °F 18.1 °F 1014.8 in ESE 17.5 mph 17.5 mph 50 % 0.0 in
13:27 30.3 °F 18.4 °F 1014.8 in ESE 13.0 mph 13.0 mph 49 % 0.0 in
13:32 30.1 °F 18.2 °F 1014.8 in SE 14.8 mph 14.8 mph 49 % 0.0 in
13:37 29.9 °F 18.1 °F 1014.8 in ESE 16.7 mph 16.7 mph 49 % 0.0 in
13:42 30.2 °F 18.3 °F 1014.8 in ESE 19.0 mph 19.0 mph 49 % 0.0 in
13:47 29.9 °F 18.3 °F 1014.8 in South 11.1 mph 11.1 mph 50 % 0.0 in
13:52 30.4 °F 18.8 °F 1013.8 in SE 13.0 mph 13.0 mph 50 % 0.0 in
13:57 30.2 °F 18.6 °F 1013.8 in ESE 14.8 mph 14.8 mph 50 % 0.0 in
14:02 30.0 °F 18.1 °F 1013.8 in ESE 20.4 mph 20.4 mph 49 % 0.0 in
14:07 29.6 °F 18.1 °F 1013.8 in ESE 13.0 mph 13.0 mph 50 % 0.0 in
14:12 29.4 °F 17.9 °F 1013.8 in East 24.1 mph 24.1 mph 50 % 0.0 in
14:17 29.3 °F 17.8 °F 1013.8 in ESE 18.5 mph 18.5 mph 50 % 0.0 in
14:22 29.5 °F 18.0 °F 1013.8 in ESE 16.9 mph 16.9 mph 50 % 0.0 in
14:27 29.8 °F 18.3 °F 1013.8 in East 10.3 mph 10.3 mph 50 % 0.0 in
14:32 30.0 °F 18.1 °F 1013.8 in ESE 13.0 mph 13.0 mph 49 % 0.0 in
14:37 29.9 °F 18.1 °F 1013.8 in East 14.8 mph 14.8 mph 49 % 0.0 in
14:42 30.0 °F 18.1 °F 1013.8 in ENE 11.1 mph 11.1 mph 49 % 0.0 in
14:47 30.0 °F 18.1 °F 1013.8 in ESE 9.7 mph 10.3 mph 49 % 0.0 in
14:52 29.9 °F 18.3 °F 1014.8 in ENE 15.6 mph 15.6 mph 50 % 0.0 in
14:57 29.7 °F 18.2 °F 1014.8 in ENE 10.3 mph 10.3 mph 50 % 0.0 in
15:02 30.1 °F 18.2 °F 1014.8 in ESE 16.7 mph 16.7 mph 49 % 0.0 in
15:07 30.3 °F 18.4 °F 1013.8 in SSE 14.8 mph 14.8 mph 49 % 0.0 in
15:12 30.6 °F 18.3 °F 1013.8 in SSW 11.1 mph 11.1 mph 48 % 0.0 in
15:17 30.2 °F 18.0 °F 1013.8 in ESE 20.4 mph 20.4 mph 48 % 0.0 in
15:22 30.4 °F 18.2 °F 1013.8 in SE 13.0 mph 13.0 mph 48 % 0.0 in
15:27 30.8 °F 18.5 °F 1013.8 in SSW 13.0 mph 13.0 mph 48 % 0.0 in
15:32 30.8 °F 18.5 °F 1013.8 in SSE 11.1 mph 11.1 mph 48 % 0.0 in
15:37 30.6 °F 18.3 °F 1013.8 in SE 10.8 mph 10.8 mph 48 % 0.0 in
15:42 30.2 °F 18.0 °F 1013.8 in ESE 14.8 mph 14.8 mph 48 % 0.0 in
15:47 30.5 °F 18.2 °F 1013.8 in ENE 14.8 mph 14.8 mph 48 % 0.0 in
15:52 30.3 °F 18.1 °F 1013.8 in ENE 18.5 mph 18.5 mph 48 % 0.0 in
15:57 30.5 °F 17.9 °F 1013.8 in ENE 20.6 mph 20.6 mph 47 % 0.0 in
16:02 30.5 °F 18.2 °F 1013.8 in ESE 24.5 mph 24.5 mph 48 % 0.0 in
16:07 29.9 °F 17.7 °F 1013.8 in ENE 22.2 mph 22.2 mph 48 % 0.0 in
16:12 30.1 °F 17.9 °F 1013.8 in ESE 14.8 mph 14.8 mph 48 % 0.0 in
16:17 30.2 °F 18.0 °F 1013.8 in East 18.5 mph 18.5 mph 48 % 0.0 in
16:22 29.9 °F 17.7 °F 1013.8 in ESE 25.9 mph 25.9 mph 48 % 0.0 in
16:27 30.0 °F 17.8 °F 1013.8 in ESE 18.5 mph 18.5 mph 48 % 0.0 in
16:32 29.9 °F 17.7 °F 1013.8 in East 20.6 mph 20.6 mph 48 % 0.0 in
16:37 29.8 °F 17.6 °F 1013.8 in NNE 16.7 mph 16.7 mph 48 % 0.0 in
16:42 30.2 °F 18.0 °F 1013.8 in ESE 14.8 mph 14.8 mph 48 % 0.0 in
16:47 29.9 °F 17.7 °F 1013.8 in ENE 14.8 mph 14.8 mph 48 % 0.0 in
16:52 29.8 °F 17.6 °F 1013.8 in SSE 16.4 mph 16.4 mph 48 % 0.0 in
16:57 29.6 °F 17.4 °F 1013.8 in ENE 15.6 mph 15.6 mph 48 % 0.0 in
17:02 29.7 °F 17.8 °F 1013.8 in ESE 18.5 mph 18.5 mph 49 % 0.0 in
17:07 29.5 °F 17.7 °F 1013.8 in ESE 20.4 mph 20.4 mph 49 % 0.0 in
17:12 29.3 °F 17.5 °F 1013.8 in ESE 14.8 mph 14.8 mph 49 % 0.0 in
17:17 29.3 °F 17.5 °F 1013.8 in East 18.5 mph 18.5 mph 49 % 0.0 in
17:22 29.2 °F 17.4 °F 1012.8 in NNE 16.7 mph 16.7 mph 49 % 0.0 in
17:27 29.4 °F 17.6 °F 1012.8 in ENE 16.1 mph 16.1 mph 49 % 0.0 in
17:32 29.2 °F 17.4 °F 1012.8 in ESE 13.0 mph 13.0 mph 49 % 0.0 in
17:42 29.1 °F 17.3 °F 1013.8 in NE 16.7 mph 16.7 mph 49 % 0.0 in
17:47 28.9 °F 17.7 °F 1013.8 in SE 20.4 mph 20.4 mph 51 % 0.0 in
17:52 29.0 °F 17.5 °F 1012.8 in ESE 9.3 mph 9.3 mph 50 % 0.0 in
17:57 28.9 °F 17.7 °F 1012.8 in ENE 14.8 mph 14.8 mph 51 % 0.0 in
18:02 28.8 °F 17.7 °F 1012.8 in ESE 16.9 mph 16.9 mph 51 % 0.0 in
18:09 28.6 °F 17.4 °F 1012.8 in ESE 14.8 mph 14.8 mph 51 % 0.0 in
18:14 28.6 °F 17.4 °F 1012.8 in East 14.8 mph 14.8 mph 51 % 0.0 in
18:19 28.6 °F 17.4 °F 1012.8 in ESE 18.5 mph 18.5 mph 51 % 0.0 in
18:24 28.5 °F 17.4 °F 1012.8 in ESE 18.5 mph 18.5 mph 51 % 0.0 in
18:29 28.2 °F 17.4 °F 1012.8 in ESE 22.2 mph 22.2 mph 52 % 0.0 in
18:34 28.2 °F 17.4 °F 1012.8 in ESE 18.5 mph 18.5 mph 52 % 0.0 in
18:39 28.2 °F 17.4 °F 1012.8 in ESE 18.0 mph 18.0 mph 52 % 0.0 in
18:49 27.8 °F 17.3 °F 1012.8 in ESE 13.0 mph 13.0 mph 53 % 0.0 in
18:54 27.8 °F 17.3 °F 1012.8 in ENE 14.8 mph 14.8 mph 53 % 0.0 in
18:59 27.9 °F 17.4 °F 1012.8 in East 14.8 mph 14.8 mph 53 % 0.0 in
19:04 28.0 °F 17.5 °F 1012.8 in ENE 13.0 mph 13.0 mph 53 % 0.0 in
19:09 27.9 °F 17.7 °F 1012.8 in NNE 10.0 mph 10.0 mph 54 % 0.0 in
19:10 22.9 °F 19.1 °F 1015.8 in NE 3.2 mph 4.8 mph 79 % 0.0 in
19:14 27.8 °F 17.7 °F 1012.8 in ENE 14.8 mph 14.8 mph 54 % 0.0 in
19:19 27.7 °F 17.6 °F 1012.8 in NNE 11.1 mph 11.4 mph 54 % 0.0 in
19:20 22.8 °F 19.2 °F 1015.8 in ENE 4.8 mph 6.4 mph 80 % 0.0 in
19:24 27.7 °F 17.8 °F 1012.8 in ESE 9.3 mph 9.3 mph 55 % 0.0 in
19:29 27.8 °F 17.9 °F 1012.8 in ENE 7.4 mph 7.4 mph 55 % 0.0 in
19:30 22.8 °F 19.2 °F 1015.8 in ENE 3.2 mph 4.8 mph 80 % 0.0 in
19:34 27.6 °F 17.7 °F 1012.8 in SE 9.3 mph 9.3 mph 55 % 0.0 in
19:39 27.6 °F 17.7 °F 1012.8 in ENE 9.3 mph 9.3 mph 55 % 0.0 in
19:40 22.8 °F 19.4 °F 1015.8 in East 3.2 mph 8.0 mph 81 % 0.0 in
19:44 27.2 °F 17.7 °F 1012.8 in ENE 11.1 mph 11.1 mph 56 % 0.0 in
19:49 27.2 °F 17.9 °F 1013.8 in NE 7.4 mph 7.4 mph 57 % 0.0 in
19:50 22.7 °F 19.3 °F 1015.8 in East 3.2 mph 4.8 mph 81 % 0.0 in
19:54 27.0 °F 17.8 °F 1013.8 in ESE 13.0 mph 13.0 mph 57 % 0.0 in
19:59 27.0 °F 17.8 °F 1013.8 in East 9.3 mph 9.3 mph 57 % 0.0 in
20:00 22.6 °F 19.0 °F 1015.8 in ENE 1.6 mph 4.8 mph 80 % 0.0 in
20:04 27.0 °F 17.8 °F 1013.8 in ENE 5.6 mph 5.6 mph 57 % 0.0 in
20:09 26.8 °F 17.8 °F 1013.8 in ESE 11.1 mph 11.1 mph 58 % 0.0 in
20:10 22.5 °F 19.1 °F 1015.8 in Calm   3.2 mph 81 % 0.0 in
20:14 26.7 °F 18.0 °F 1013.8 in SE 9.3 mph 9.3 mph 59 % 0.0 in
20:19 26.6 °F 17.9 °F 1013.8 in East 9.7 mph 9.7 mph 59 % 0.0 in
20:20 22.5 °F 19.1 °F 1015.8 in NE 1.6 mph 3.2 mph 81 % 0.0 in
20:24 26.4 °F 17.7 °F 1013.8 in SSE 9.3 mph 9.5 mph 59 % 0.0 in
20:29 26.2 °F 17.8 °F 1013.8 in ESE 11.1 mph 11.1 mph 60 % 0.0 in
20:30 22.5 °F 19.1 °F 1015.8 in NNE 3.2 mph 4.8 mph 81 % 0.0 in
20:34 26.2 °F 18.1 °F 1013.8 in ENE 11.1 mph 11.1 mph 61 % 0.0 in
20:39 26.0 °F 18.2 °F 1013.8 in ENE 9.3 mph 9.3 mph 62 % 0.0 in
20:40 22.3 °F 18.9 °F 1015.8 in NNE 3.2 mph 4.8 mph 81 % 0.0 in
20:44 25.9 °F 18.1 °F 1013.8 in ESE 7.4 mph 7.4 mph 62 % 0.0 in
20:49 25.8 °F 18.2 °F 1013.8 in ESE 7.4 mph 7.4 mph 63 % 0.0 in
20:50 22.3 °F 18.9 °F 1014.8 in NNE 1.6 mph 4.8 mph 81 % 0.0 in
20:54 25.7 °F 18.1 °F 1013.8 in ENE 7.6 mph 7.6 mph 63 % 0.0 in
20:58 25.6 °F 18.1 °F 1013.8 in ENE 9.5 mph 9.5 mph 63 % 0.0 in
21:00 22.2 °F 18.8 °F 1014.8 in NNE 1.6 mph 3.2 mph 81 % 0.0 in
21:03 25.4 °F 18.1 °F 1013.8 in ENE 6.1 mph 6.1 mph 64 % 0.0 in
21:08 25.3 °F 18.2 °F 1013.8 in ENE 11.1 mph 11.1 mph 65 % 0.0 in
21:10 22.1 °F 18.9 °F 1015.8 in NNE 3.2 mph 3.2 mph 82 % 0.0 in
21:13 25.1 °F 18.1 °F 1013.8 in East 9.3 mph 9.3 mph 65 % 0.0 in
21:18 25.0 °F 18.2 °F 1013.8 in ENE 9.3 mph 9.3 mph 66 % 0.0 in
21:20 22.0 °F 18.8 °F 1015.8 in Calm   1.6 mph 82 % 0.0 in
21:23 24.9 °F 18.6 °F 1013.8 in East 7.4 mph 7.4 mph 68 % 0.0 in
21:28 24.8 °F 18.7 °F 1013.8 in ESE 11.1 mph 11.1 mph 69 % 0.0 in
21:30 22.0 °F 18.8 °F 1015.8 in Calm   3.2 mph 82 % 0.0 in
21:33 24.7 °F 18.8 °F 1013.8 in ENE 9.3 mph 9.3 mph 70 % 0.0 in
21:38 24.6 °F 18.8 °F 1013.8 in ENE 11.1 mph 11.1 mph 70 % 0.0 in
21:40 21.9 °F 18.9 °F 1015.8 in Calm   1.6 mph 83 % 0.0 in
21:43 24.5 °F 18.7 °F 1013.8 in ESE 5.6 mph 5.6 mph 70 % 0.0 in
21:48 24.4 °F 18.6 °F 1013.8 in East 9.7 mph 9.7 mph 70 % 0.0 in
21:50 21.8 °F 18.8 °F 1015.8 in NNE 1.6 mph 1.6 mph 83 % 0.0 in
21:53 24.4 °F 18.8 °F 1013.8 in ESE 11.1 mph 11.1 mph 71 % 0.0 in
21:58 24.3 °F 18.9 °F 1013.8 in ENE 7.4 mph 7.4 mph 72 % 0.0 in
22:00 21.7 °F 18.7 °F 1015.8 in Calm     83 % 0.0 in
22:03 24.2 °F 18.8 °F 1013.8 in ESE 7.4 mph 7.4 mph 72 % 0.0 in
22:08 24.2 °F 19.1 °F 1014.8 in ENE 7.4 mph 7.4 mph 73 % 0.0 in
22:10 21.6 °F 18.6 °F 1015.8 in Calm     83 % 0.0 in
22:13 24.1 °F 18.9 °F 1014.8 in East 9.5 mph 9.5 mph 73 % 0.0 in
22:18 24.0 °F 19.1 °F 1014.8 in East 9.3 mph 9.3 mph 74 % 0.0 in
22:20 21.5 °F 18.5 °F 1015.8 in Calm     83 % 0.0 in
22:23 24.0 °F 19.1 °F 1014.8 in ESE 11.1 mph 11.1 mph 74 % 0.0 in
22:28 24.0 °F 19.3 °F 1014.8 in ESE 9.3 mph 9.3 mph 75 % 0.0 in
22:30 21.4 °F 18.6 °F 1015.8 in Calm   1.6 mph 84 % 0.0 in
22:33 23.9 °F 19.2 °F 1014.8 in NNE 5.6 mph 5.6 mph 75 % 0.0 in
22:38 23.8 °F 19.1 °F 1014.8 in East 5.6 mph 5.6 mph 75 % 0.0 in
22:40 21.3 °F 18.5 °F 1015.8 in ENE 1.6 mph 3.2 mph 84 % 0.0 in
22:43 23.7 °F 19.0 °F 1014.8 in ESE 9.3 mph 9.3 mph 75 % 0.0 in
22:48 23.7 °F 19.0 °F 1014.8 in East 7.4 mph 7.4 mph 75 % 0.0 in
22:50 21.2 °F 18.4 °F 1014.8 in ENE 1.6 mph 1.6 mph 84 % 0.0 in
22:53 23.6 °F 18.9 °F 1015.8 in ENE 9.3 mph 9.3 mph 75 % 0.0 in
22:58 23.6 °F 19.1 °F 1015.8 in ENE 7.6 mph 7.6 mph 76 % 0.0 in
23:00 21.2 °F 18.4 °F 1014.8 in Calm     84 % 0.0 in
23:03 23.6 °F 19.1 °F 1015.8 in East 9.3 mph 9.3 mph 76 % 0.0 in
23:08 23.5 °F 19.0 °F 1014.8 in ENE 3.9 mph 3.9 mph 76 % 0.0 in
23:10 21.1 °F 18.3 °F 1014.8 in Calm     84 % 0.0 in
23:13 23.5 °F 19.0 °F 1014.8 in NE 3.9 mph 4.2 mph 76 % 0.0 in
23:18 23.4 °F 18.9 °F 1015.8 in NNE 3.7 mph 3.9 mph 76 % 0.0 in
23:20 21.0 °F 18.2 °F 1014.8 in ENE 1.6 mph 3.2 mph 84 % 0.0 in
23:23 23.3 °F 18.8 °F 1015.8 in ENE 7.4 mph 7.4 mph 76 % 0.0 in
23:28 23.3 °F 18.8 °F 1015.8 in NE 5.6 mph 5.6 mph 76 % 0.0 in
23:30 20.9 °F 18.1 °F 1014.8 in NE 1.6 mph 1.6 mph 84 % 0.0 in
23:33 23.2 °F 18.7 °F 1015.8 in NNE 5.6 mph 5.6 mph 76 % 0.0 in
23:38 23.1 °F 18.8 °F 1015.8 in ENE 5.6 mph 5.6 mph 77 % 0.0 in
23:40 20.8 °F 18.0 °F 1015.8 in Calm     84 % 0.0 in
23:43 23.1 °F 18.8 °F 1015.8 in ENE 5.6 mph 5.6 mph 77 % 0.0 in
23:48 23.1 °F 18.8 °F 1015.8 in NE 5.6 mph 5.6 mph 77 % 0.0 in
23:50 20.6 °F 17.8 °F 1015.8 in SE 1.6 mph 3.2 mph 84 % 0.0 in
23:53 23.0 °F 18.7 °F 1015.8 in NE 7.4 mph 7.4 mph 77 % 0.0 in
Meteo Sesrovires
Elogis d' Weather Underground - 1.5 mb

Guio original per  Jim McMurry - jmcmurry@mwt.net Adaptat per a la plantilla per  Wim van der Kuil - Leuven-Template.eu

Trobareu la nostra informacio del temps tambe a:

Weather Underground

AWEKAS